sensor_id;sensor_type;location;lat;lon;timestamp;P1;durP1;ratioP1;P2;durP2;ratioP2
12768;SDS011;6448;48.916;8.990;2022-12-18T00:00:03;25.40;;;22.90;;
12768;SDS011;6448;48.916;8.990;2022-12-18T00:01:15;26.65;;;24.15;;
12768;SDS011;6448;48.916;8.990;2022-12-18T00:02:17;25.92;;;23.42;;
12768;SDS011;6448;48.916;8.990;2022-12-18T00:03:19;25.40;;;23.00;;
12768;SDS011;6448;48.916;8.990;2022-12-18T00:04:20;24.27;;;21.98;;
12768;SDS011;6448;48.916;8.990;2022-12-18T00:05:23;24.48;;;22.17;;
12768;SDS011;6448;48.916;8.990;2022-12-18T00:06:24;25.63;;;23.08;;
12768;SDS011;6448;48.916;8.990;2022-12-18T00:07:27;25.63;;;23.13;;
12768;SDS011;6448;48.916;8.990;2022-12-18T00:08:28;25.27;;;22.80;;
12768;SDS011;6448;48.916;8.990;2022-12-18T00:09:30;24.48;;;22.08;;
12768;SDS011;6448;48.916;8.990;2022-12-18T00:10:31;24.17;;;21.87;;
12768;SDS011;6448;48.916;8.990;2022-12-18T00:11:32;25.00;;;22.63;;
12768;SDS011;6448;48.916;8.990;2022-12-18T00:12:33;23.42;;;21.23;;
12768;SDS011;6448;48.916;8.990;2022-12-18T00:13:36;23.30;;;21.10;;
12768;SDS011;6448;48.916;8.990;2022-12-18T00:14:37;24.55;;;22.23;;
12768;SDS011;6448;48.916;8.990;2022-12-18T00:15:39;24.88;;;22.48;;
12768;SDS011;6448;48.916;8.990;2022-12-18T00:16:42;24.13;;;21.83;;
12768;SDS011;6448;48.916;8.990;2022-12-18T00:17:45;24.77;;;22.38;;
12768;SDS011;6448;48.916;8.990;2022-12-18T00:18:46;24.63;;;22.33;;
12768;SDS011;6448;48.916;8.990;2022-12-18T00:19:49;23.70;;;21.50;;
12768;SDS011;6448;48.916;8.990;2022-12-18T00:20:51;22.65;;;20.52;;
12768;SDS011;6448;48.916;8.990;2022-12-18T00:21:51;21.80;;;19.80;;
12768;SDS011;6448;48.916;8.990;2022-12-18T00:22:53;22.50;;;20.33;;
12768;SDS011;6448;48.916;8.990;2022-12-18T00:23:54;22.50;;;20.35;;
12768;SDS011;6448;48.916;8.990;2022-12-18T00:24:57;22.52;;;20.42;;
12768;SDS011;6448;48.916;8.990;2022-12-18T00:25:58;22.27;;;20.17;;
12768;SDS011;6448;48.916;8.990;2022-12-18T00:27:00;23.38;;;21.17;;
12768;SDS011;6448;48.916;8.990;2022-12-18T00:28:02;23.02;;;20.83;;
12768;SDS011;6448;48.916;8.990;2022-12-18T00:29:06;23.42;;;21.13;;
12768;SDS011;6448;48.916;8.990;2022-12-18T00:30:10;24.48;;;22.10;;
12768;SDS011;6448;48.916;8.990;2022-12-18T00:31:13;23.58;;;21.38;;
12768;SDS011;6448;48.916;8.990;2022-12-18T00:32:14;23.88;;;21.58;;
12768;SDS011;6448;48.916;8.990;2022-12-18T00:33:16;24.65;;;22.35;;
12768;SDS011;6448;48.916;8.990;2022-12-18T00:34:17;25.10;;;22.70;;
12768;SDS011;6448;48.916;8.990;2022-12-18T00:35:19;25.25;;;22.83;;
12768;SDS011;6448;48.916;8.990;2022-12-18T00:36:21;23.90;;;21.60;;
12768;SDS011;6448;48.916;8.990;2022-12-18T00:37:25;23.77;;;21.48;;
12768;SDS011;6448;48.916;8.990;2022-12-18T00:38:26;23.43;;;21.23;;
12768;SDS011;6448;48.916;8.990;2022-12-18T00:39:28;24.17;;;21.77;;
12768;SDS011;6448;48.916;8.990;2022-12-18T00:40:29;23.60;;;21.35;;
12768;SDS011;6448;48.916;8.990;2022-12-18T00:41:31;23.50;;;21.30;;
12768;SDS011;6448;48.916;8.990;2022-12-18T00:42:51;23.52;;;21.33;;
12768;SDS011;6448;48.916;8.990;2022-12-18T00:43:58;23.40;;;21.20;;
12768;SDS011;6448;48.916;8.990;2022-12-18T00:45:00;23.30;;;21.10;;
12768;SDS011;6448;48.916;8.990;2022-12-18T00:46:02;23.58;;;21.35;;
12768;SDS011;6448;48.916;8.990;2022-12-18T00:47:03;23.92;;;21.70;;
12768;SDS011;6448;48.916;8.990;2022-12-18T00:48:05;23.48;;;21.17;;
12768;SDS011;6448;48.916;8.990;2022-12-18T00:49:06;23.92;;;21.63;;
12768;SDS011;6448;48.916;8.990;2022-12-18T00:50:08;24.98;;;22.50;;
12768;SDS011;6448;48.916;8.990;2022-12-18T00:51:10;23.73;;;21.50;;
12768;SDS011;6448;48.916;8.990;2022-12-18T00:52:11;23.10;;;20.90;;
12768;SDS011;6448;48.916;8.990;2022-12-18T00:53:13;24.33;;;21.95;;
12768;SDS011;6448;48.916;8.990;2022-12-18T00:54:15;23.85;;;21.55;;
12768;SDS011;6448;48.916;8.990;2022-12-18T00:55:18;24.17;;;21.92;;
12768;SDS011;6448;48.916;8.990;2022-12-18T00:56:20;23.90;;;21.60;;
12768;SDS011;6448;48.916;8.990;2022-12-18T00:57:23;24.48;;;22.15;;
12768;SDS011;6448;48.916;8.990;2022-12-18T00:58:23;23.48;;;21.20;;
12768;SDS011;6448;48.916;8.990;2022-12-18T00:59:25;24.33;;;21.90;;
12768;SDS011;6448;48.916;8.990;2022-12-18T01:00:27;24.25;;;21.95;;
12768;SDS011;6448;48.916;8.990;2022-12-18T01:01:29;24.25;;;21.95;;
12768;SDS011;6448;48.916;8.990;2022-12-18T01:02:30;23.17;;;20.97;;
12768;SDS011;6448;48.916;8.990;2022-12-18T01:03:32;23.52;;;21.23;;
12768;SDS011;6448;48.916;8.990;2022-12-18T01:04:33;24.33;;;21.92;;
12768;SDS011;6448;48.916;8.990;2022-12-18T01:05:38;25.30;;;22.90;;
12768;SDS011;6448;48.916;8.990;2022-12-18T01:06:39;24.35;;;21.95;;
12768;SDS011;6448;48.916;8.990;2022-12-18T01:07:41;25.02;;;22.55;;
12768;SDS011;6448;48.916;8.990;2022-12-18T01:08:42;24.67;;;22.38;;
12768;SDS011;6448;48.916;8.990;2022-12-18T01:09:46;25.13;;;22.73;;
12768;SDS011;6448;48.916;8.990;2022-12-18T01:10:47;23.88;;;21.58;;
12768;SDS011;6448;48.916;8.990;2022-12-18T01:11:49;24.17;;;21.88;;
12768;SDS011;6448;48.916;8.990;2022-12-18T01:12:49;24.23;;;21.92;;
12768;SDS011;6448;48.916;8.990;2022-12-18T01:13:53;24.20;;;21.90;;
12768;SDS011;6448;48.916;8.990;2022-12-18T01:14:56;24.27;;;21.88;;
12768;SDS011;6448;48.916;8.990;2022-12-18T01:15:59;24.25;;;21.95;;
12768;SDS011;6448;48.916;8.990;2022-12-18T01:17:00;24.20;;;21.90;;
12768;SDS011;6448;48.916;8.990;2022-12-18T01:18:06;23.92;;;21.73;;
12768;SDS011;6448;48.916;8.990;2022-12-18T01:19:07;24.23;;;21.92;;
12768;SDS011;6448;48.916;8.990;2022-12-18T01:20:09;23.15;;;21.05;;
12768;SDS011;6448;48.916;8.990;2022-12-18T01:21:13;24.00;;;21.70;;
12768;SDS011;6448;48.916;8.990;2022-12-18T01:22:17;23.63;;;21.42;;
12768;SDS011;6448;48.916;8.990;2022-12-18T01:23:18;24.88;;;22.48;;
12768;SDS011;6448;48.916;8.990;2022-12-18T01:24:21;24.77;;;22.42;;
12768;SDS011;6448;48.916;8.990;2022-12-18T01:25:23;24.33;;;22.02;;
12768;SDS011;6448;48.916;8.990;2022-12-18T01:26:24;23.98;;;21.77;;
12768;SDS011;6448;48.916;8.990;2022-12-18T01:27:29;24.30;;;21.90;;
12768;SDS011;6448;48.916;8.990;2022-12-18T01:28:30;23.73;;;21.40;;
12768;SDS011;6448;48.916;8.990;2022-12-18T01:29:32;24.05;;;21.75;;
12768;SDS011;6448;48.916;8.990;2022-12-18T01:30:33;24.27;;;21.98;;
12768;SDS011;6448;48.916;8.990;2022-12-18T01:31:36;24.55;;;22.20;;
12768;SDS011;6448;48.916;8.990;2022-12-18T01:32:37;23.80;;;21.50;;
12768;SDS011;6448;48.916;8.990;2022-12-18T01:33:39;23.75;;;21.55;;
12768;SDS011;6448;48.916;8.990;2022-12-18T01:34:40;23.20;;;21.00;;
12768;SDS011;6448;48.916;8.990;2022-12-18T01:35:42;22.73;;;20.52;;
12768;SDS011;6448;48.916;8.990;2022-12-18T01:36:43;23.10;;;20.90;;
12768;SDS011;6448;48.916;8.990;2022-12-18T01:37:45;22.57;;;20.47;;
12768;SDS011;6448;48.916;8.990;2022-12-18T01:38:46;22.60;;;20.50;;
12768;SDS011;6448;48.916;8.990;2022-12-18T01:39:48;21.65;;;19.55;;
12768;SDS011;6448;48.916;8.990;2022-12-18T01:40:51;21.80;;;19.63;;
12768;SDS011;6448;48.916;8.990;2022-12-18T01:41:58;21.60;;;19.60;;
12768;SDS011;6448;48.916;8.990;2022-12-18T01:43:05;21.98;;;19.90;;
12768;SDS011;6448;48.916;8.990;2022-12-18T01:45:44;22.42;;;20.25;;
12768;SDS011;6448;48.916;8.990;2022-12-18T01:46:48;22.25;;;20.15;;
12768;SDS011;6448;48.916;8.990;2022-12-18T01:47:50;22.33;;;20.23;;
12768;SDS011;6448;48.916;8.990;2022-12-18T01:48:54;21.38;;;19.38;;
12768;SDS011;6448;48.916;8.990;2022-12-18T01:50:01;20.58;;;18.67;;
12768;SDS011;6448;48.916;8.990;2022-12-18T01:51:05;20.02;;;18.23;;
12768;SDS011;6448;48.916;8.990;2022-12-18T01:52:08;19.60;;;17.88;;
12768;SDS011;6448;48.916;8.990;2022-12-18T01:53:11;20.27;;;18.35;;
12768;SDS011;6448;48.916;8.990;2022-12-18T01:54:14;20.48;;;18.58;;
12768;SDS011;6448;48.916;8.990;2022-12-18T01:55:16;20.55;;;18.60;;
12768;SDS011;6448;48.916;8.990;2022-12-18T01:56:20;21.30;;;19.30;;
12768;SDS011;6448;48.916;8.990;2022-12-18T01:57:23;21.92;;;19.92;;
12768;SDS011;6448;48.916;8.990;2022-12-18T01:58:27;22.92;;;20.70;;
12768;SDS011;6448;48.916;8.990;2022-12-18T01:59:33;22.17;;;20.08;;
12768;SDS011;6448;48.916;8.990;2022-12-18T02:00:36;22.02;;;19.92;;
12768;SDS011;6448;48.916;8.990;2022-12-18T02:01:38;21.70;;;19.63;;
12768;SDS011;6448;48.916;8.990;2022-12-18T02:02:41;22.15;;;20.05;;
12768;SDS011;6448;48.916;8.990;2022-12-18T02:03:46;22.25;;;20.08;;
12768;SDS011;6448;48.916;8.990;2022-12-18T02:04:49;22.27;;;20.07;;
12768;SDS011;6448;48.916;8.990;2022-12-18T02:05:53;21.58;;;19.58;;
12768;SDS011;6448;48.916;8.990;2022-12-18T02:07:03;21.23;;;19.23;;
12768;SDS011;6448;48.916;8.990;2022-12-18T02:08:12;20.77;;;18.77;;
12768;SDS011;6448;48.916;8.990;2022-12-18T02:09:18;20.55;;;18.65;;
12768;SDS011;6448;48.916;8.990;2022-12-18T02:10:24;20.98;;;18.98;;
12768;SDS011;6448;48.916;8.990;2022-12-18T02:11:32;21.25;;;19.25;;
12768;SDS011;6448;48.916;8.990;2022-12-18T02:12:45;21.48;;;19.42;;
12768;SDS011;6448;48.916;8.990;2022-12-18T02:13:53;20.83;;;18.83;;
12768;SDS011;6448;48.916;8.990;2022-12-18T02:15:03;20.65;;;18.65;;
12768;SDS011;6448;48.916;8.990;2022-12-18T02:16:15;22.55;;;20.35;;
12768;SDS011;6448;48.916;8.990;2022-12-18T02:17:22;22.30;;;20.20;;
12768;SDS011;6448;48.916;8.990;2022-12-18T02:18:27;23.27;;;21.00;;
12768;SDS011;6448;48.916;8.990;2022-12-18T02:21:00;22.20;;;20.10;;
12768;SDS011;6448;48.916;8.990;2022-12-18T02:22:21;22.17;;;20.08;;
12768;SDS011;6448;48.916;8.990;2022-12-18T02:23:36;21.52;;;19.52;;
12768;SDS011;6448;48.916;8.990;2022-12-18T02:24:49;22.30;;;20.20;;
12768;SDS011;6448;48.916;8.990;2022-12-18T02:27:25;22.48;;;20.38;;
12768;SDS011;6448;48.916;8.990;2022-12-18T02:28:28;21.85;;;19.85;;
12768;SDS011;6448;48.916;8.990;2022-12-18T02:29:36;22.08;;;20.08;;
12768;SDS011;6448;48.916;8.990;2022-12-18T02:30:40;21.70;;;19.67;;
12768;SDS011;6448;48.916;8.990;2022-12-18T02:31:46;22.73;;;20.52;;
12768;SDS011;6448;48.916;8.990;2022-12-18T02:32:52;23.05;;;20.83;;
12768;SDS011;6448;48.916;8.990;2022-12-18T02:33:58;22.92;;;20.73;;
12768;SDS011;6448;48.916;8.990;2022-12-18T02:35:02;23.10;;;20.90;;
12768;SDS011;6448;48.916;8.990;2022-12-18T02:36:07;23.23;;;20.92;;
12768;SDS011;6448;48.916;8.990;2022-12-18T02:37:11;23.17;;;20.98;;
12768;SDS011;6448;48.916;8.990;2022-12-18T02:38:16;23.85;;;21.55;;
12768;SDS011;6448;48.916;8.990;2022-12-18T02:39:20;22.83;;;20.67;;
12768;SDS011;6448;48.916;8.990;2022-12-18T02:40:31;22.30;;;20.20;;
12768;SDS011;6448;48.916;8.990;2022-12-18T02:41:35;22.98;;;20.77;;
12768;SDS011;6448;48.916;8.990;2022-12-18T02:42:38;22.73;;;20.63;;
12768;SDS011;6448;48.916;8.990;2022-12-18T02:43:45;23.52;;;21.23;;
12768;SDS011;6448;48.916;8.990;2022-12-18T02:44:54;23.02;;;20.88;;
12768;SDS011;6448;48.916;8.990;2022-12-18T02:45:58;22.05;;;19.95;;
12768;SDS011;6448;48.916;8.990;2022-12-18T02:47:05;22.88;;;20.67;;
12768;SDS011;6448;48.916;8.990;2022-12-18T02:48:07;22.93;;;20.73;;
12768;SDS011;6448;48.916;8.990;2022-12-18T02:49:12;22.73;;;20.63;;
12768;SDS011;6448;48.916;8.990;2022-12-18T02:50:26;23.17;;;20.98;;
12768;SDS011;6448;48.916;8.990;2022-12-18T02:51:37;23.17;;;20.98;;
12768;SDS011;6448;48.916;8.990;2022-12-18T02:52:47;24.70;;;22.30;;
12768;SDS011;6448;48.916;8.990;2022-12-18T02:53:58;26.67;;;24.08;;
12768;SDS011;6448;48.916;8.990;2022-12-18T02:55:10;28.13;;;25.40;;
12768;SDS011;6448;48.916;8.990;2022-12-18T02:56:24;27.30;;;24.70;;
12768;SDS011;6448;48.916;8.990;2022-12-18T02:57:32;27.08;;;24.52;;
12768;SDS011;6448;48.916;8.990;2022-12-18T02:58:40;26.08;;;23.58;;
12768;SDS011;6448;48.916;8.990;2022-12-18T03:00:00;27.15;;;24.55;;
12768;SDS011;6448;48.916;8.990;2022-12-18T03:01:07;26.50;;;23.90;;
12768;SDS011;6448;48.916;8.990;2022-12-18T03:02:16;26.55;;;24.05;;
12768;SDS011;6448;48.916;8.990;2022-12-18T03:03:22;26.07;;;23.57;;
12768;SDS011;6448;48.916;8.990;2022-12-18T03:04:30;26.85;;;24.08;;
12768;SDS011;6448;48.916;8.990;2022-12-18T03:05:37;25.83;;;23.35;;
12768;SDS011;6448;48.916;8.990;2022-12-18T03:06:44;24.92;;;22.52;;
12768;SDS011;6448;48.916;8.990;2022-12-18T03:07:50;25.83;;;23.40;;
12768;SDS011;6448;48.916;8.990;2022-12-18T03:08:57;27.83;;;25.05;;
12768;SDS011;6448;48.916;8.990;2022-12-18T03:10:01;27.77;;;25.15;;
12768;SDS011;6448;48.916;8.990;2022-12-18T03:11:03;28.13;;;25.33;;
12768;SDS011;6448;48.916;8.990;2022-12-18T03:12:09;28.27;;;25.50;;
12768;SDS011;6448;48.916;8.990;2022-12-18T03:13:26;27.90;;;25.17;;
12768;SDS011;6448;48.916;8.990;2022-12-18T03:14:30;27.55;;;24.95;;
12768;SDS011;6448;48.916;8.990;2022-12-18T03:15:34;27.70;;;24.90;;
12768;SDS011;6448;48.916;8.990;2022-12-18T03:16:43;26.80;;;24.20;;
12768;SDS011;6448;48.916;8.990;2022-12-18T03:17:46;27.17;;;24.43;;
12768;SDS011;6448;48.916;8.990;2022-12-18T03:18:52;27.40;;;24.65;;
12768;SDS011;6448;48.916;8.990;2022-12-18T03:19:58;27.60;;;24.90;;
12768;SDS011;6448;48.916;8.990;2022-12-18T03:21:06;27.60;;;24.80;;
12768;SDS011;6448;48.916;8.990;2022-12-18T03:22:11;27.63;;;24.92;;
12768;SDS011;6448;48.916;8.990;2022-12-18T03:23:20;28.55;;;25.75;;
12768;SDS011;6448;48.916;8.990;2022-12-18T03:24:26;27.55;;;24.85;;
12768;SDS011;6448;48.916;8.990;2022-12-18T03:25:31;27.53;;;24.90;;
12768;SDS011;6448;48.916;8.990;2022-12-18T03:26:36;27.50;;;24.85;;
12768;SDS011;6448;48.916;8.990;2022-12-18T03:27:42;27.50;;;24.83;;
12768;SDS011;6448;48.916;8.990;2022-12-18T03:28:52;27.63;;;24.92;;
12768;SDS011;6448;48.916;8.990;2022-12-18T03:30:00;27.33;;;24.73;;
12768;SDS011;6448;48.916;8.990;2022-12-18T03:31:09;27.38;;;24.73;;
12768;SDS011;6448;48.916;8.990;2022-12-18T03:32:13;27.05;;;24.45;;
12768;SDS011;6448;48.916;8.990;2022-12-18T03:33:19;27.10;;;24.40;;
12768;SDS011;6448;48.916;8.990;2022-12-18T03:34:29;27.60;;;24.90;;
12768;SDS011;6448;48.916;8.990;2022-12-18T03:35:37;27.48;;;24.80;;
12768;SDS011;6448;48.916;8.990;2022-12-18T03:36:42;26.95;;;24.35;;
12768;SDS011;6448;48.916;8.990;2022-12-18T03:37:44;26.63;;;24.13;;
12768;SDS011;6448;48.916;8.990;2022-12-18T03:38:45;26.53;;;23.93;;
12768;SDS011;6448;48.916;8.990;2022-12-18T03:39:46;27.02;;;24.42;;
12768;SDS011;6448;48.916;8.990;2022-12-18T03:40:50;26.30;;;23.80;;
12768;SDS011;6448;48.916;8.990;2022-12-18T03:41:58;27.40;;;24.70;;
12768;SDS011;6448;48.916;8.990;2022-12-18T03:43:16;28.55;;;25.85;;
12768;SDS011;6448;48.916;8.990;2022-12-18T03:44:26;27.70;;;25.08;;
12768;SDS011;6448;48.916;8.990;2022-12-18T03:45:31;28.13;;;25.42;;
12768;SDS011;6448;48.916;8.990;2022-12-18T03:46:41;28.52;;;25.75;;
12768;SDS011;6448;48.916;8.990;2022-12-18T03:47:51;27.98;;;25.17;;
12768;SDS011;6448;48.916;8.990;2022-12-18T03:49:00;27.88;;;25.17;;
12768;SDS011;6448;48.916;8.990;2022-12-18T03:50:11;27.05;;;24.38;;
12768;SDS011;6448;48.916;8.990;2022-12-18T03:51:20;26.90;;;24.27;;
12768;SDS011;6448;48.916;8.990;2022-12-18T03:52:28;27.42;;;24.80;;
12768;SDS011;6448;48.916;8.990;2022-12-18T03:53:36;27.95;;;25.15;;
12768;SDS011;6448;48.916;8.990;2022-12-18T03:54:44;26.10;;;23.60;;
12768;SDS011;6448;48.916;8.990;2022-12-18T03:55:50;26.33;;;23.75;;
12768;SDS011;6448;48.916;8.990;2022-12-18T03:56:54;25.63;;;23.13;;
12768;SDS011;6448;48.916;8.990;2022-12-18T03:58:00;25.33;;;22.85;;
12768;SDS011;6448;48.916;8.990;2022-12-18T03:59:14;25.25;;;22.85;;
12768;SDS011;6448;48.916;8.990;2022-12-18T04:00:19;25.67;;;23.25;;
12768;SDS011;6448;48.916;8.990;2022-12-18T04:01:34;24.23;;;21.90;;
12768;SDS011;6448;48.916;8.990;2022-12-18T04:02:41;24.02;;;21.73;;
12768;SDS011;6448;48.916;8.990;2022-12-18T04:03:48;23.30;;;21.00;;
12768;SDS011;6448;48.916;8.990;2022-12-18T04:04:53;23.45;;;21.25;;
12768;SDS011;6448;48.916;8.990;2022-12-18T04:06:00;22.75;;;20.55;;
12768;SDS011;6448;48.916;8.990;2022-12-18T04:07:02;22.03;;;19.93;;
12768;SDS011;6448;48.916;8.990;2022-12-18T04:08:07;23.80;;;21.50;;
12768;SDS011;6448;48.916;8.990;2022-12-18T04:09:12;24.13;;;21.85;;
12768;SDS011;6448;48.916;8.990;2022-12-18T04:10:18;25.23;;;22.73;;
12768;SDS011;6448;48.916;8.990;2022-12-18T04:11:20;25.52;;;23.13;;
12768;SDS011;6448;48.916;8.990;2022-12-18T04:12:23;25.00;;;22.60;;
12768;SDS011;6448;48.916;8.990;2022-12-18T04:13:27;24.42;;;22.13;;
12768;SDS011;6448;48.916;8.990;2022-12-18T04:14:32;24.38;;;22.02;;
12768;SDS011;6448;48.916;8.990;2022-12-18T04:15:37;24.25;;;21.95;;
12768;SDS011;6448;48.916;8.990;2022-12-18T04:16:44;23.83;;;21.52;;
12768;SDS011;6448;48.916;8.990;2022-12-18T04:17:48;23.33;;;21.13;;
12768;SDS011;6448;48.916;8.990;2022-12-18T04:18:55;23.55;;;21.35;;
12768;SDS011;6448;48.916;8.990;2022-12-18T04:19:58;23.60;;;21.40;;
12768;SDS011;6448;48.916;8.990;2022-12-18T04:21:00;23.77;;;21.48;;
12768;SDS011;6448;48.916;8.990;2022-12-18T04:22:01;23.80;;;21.50;;
12768;SDS011;6448;48.916;8.990;2022-12-18T04:23:08;23.40;;;21.17;;
12768;SDS011;6448;48.916;8.990;2022-12-18T04:24:10;23.20;;;21.00;;
12768;SDS011;6448;48.916;8.990;2022-12-18T04:25:18;23.02;;;20.73;;
12768;SDS011;6448;48.916;8.990;2022-12-18T04:26:38;21.92;;;19.83;;
12768;SDS011;6448;48.916;8.990;2022-12-18T04:27:47;23.58;;;21.38;;
12768;SDS011;6448;48.916;8.990;2022-12-18T04:28:48;22.42;;;20.33;;
12768;SDS011;6448;48.916;8.990;2022-12-18T04:29:50;22.45;;;20.35;;
12768;SDS011;6448;48.916;8.990;2022-12-18T04:30:53;23.15;;;20.95;;
12768;SDS011;6448;48.916;8.990;2022-12-18T04:31:56;22.65;;;20.45;;
12768;SDS011;6448;48.916;8.990;2022-12-18T04:32:58;23.40;;;21.10;;
12768;SDS011;6448;48.916;8.990;2022-12-18T04:34:01;22.73;;;20.58;;
12768;SDS011;6448;48.916;8.990;2022-12-18T04:35:02;22.70;;;20.55;;
12768;SDS011;6448;48.916;8.990;2022-12-18T04:36:07;23.15;;;20.88;;
12768;SDS011;6448;48.916;8.990;2022-12-18T04:37:08;23.23;;;21.02;;
12768;SDS011;6448;48.916;8.990;2022-12-18T04:38:11;24.13;;;21.77;;
12768;SDS011;6448;48.916;8.990;2022-12-18T04:39:13;23.83;;;21.52;;
12768;SDS011;6448;48.916;8.990;2022-12-18T04:40:15;23.50;;;21.25;;
12768;SDS011;6448;48.916;8.990;2022-12-18T04:41:20;24.23;;;21.92;;
12768;SDS011;6448;48.916;8.990;2022-12-18T04:42:23;24.10;;;21.77;;
12768;SDS011;6448;48.916;8.990;2022-12-18T04:43:25;24.17;;;21.88;;
12768;SDS011;6448;48.916;8.990;2022-12-18T04:44:25;24.02;;;21.73;;
12768;SDS011;6448;48.916;8.990;2022-12-18T04:45:27;24.25;;;21.92;;
12768;SDS011;6448;48.916;8.990;2022-12-18T04:46:29;23.33;;;21.13;;
12768;SDS011;6448;48.916;8.990;2022-12-18T04:47:31;23.08;;;20.83;;
12768;SDS011;6448;48.916;8.990;2022-12-18T04:48:32;22.48;;;20.38;;
12768;SDS011;6448;48.916;8.990;2022-12-18T04:49:36;21.40;;;19.35;;
12768;SDS011;6448;48.916;8.990;2022-12-18T04:50:36;20.53;;;18.63;;
12768;SDS011;6448;48.916;8.990;2022-12-18T04:51:38;20.13;;;18.30;;
12768;SDS011;6448;48.916;8.990;2022-12-18T04:52:39;20.02;;;18.15;;
12768;SDS011;6448;48.916;8.990;2022-12-18T04:53:41;21.05;;;18.92;;
12768;SDS011;6448;48.916;8.990;2022-12-18T04:54:42;20.90;;;18.90;;
12768;SDS011;6448;48.916;8.990;2022-12-18T04:55:43;21.65;;;19.55;;
12768;SDS011;6448;48.916;8.990;2022-12-18T04:56:44;21.48;;;19.33;;
12768;SDS011;6448;48.916;8.990;2022-12-18T04:57:47;20.92;;;18.92;;
12768;SDS011;6448;48.916;8.990;2022-12-18T04:58:48;20.77;;;18.70;;
12768;SDS011;6448;48.916;8.990;2022-12-18T04:59:50;21.35;;;19.25;;
12768;SDS011;6448;48.916;8.990;2022-12-18T05:00:51;20.65;;;18.65;;
12768;SDS011;6448;48.916;8.990;2022-12-18T05:01:54;21.48;;;19.48;;
12768;SDS011;6448;48.916;8.990;2022-12-18T05:02:55;20.55;;;18.63;;
12768;SDS011;6448;48.916;8.990;2022-12-18T05:03:57;20.85;;;18.77;;
12768;SDS011;6448;48.916;8.990;2022-12-18T05:04:57;20.98;;;18.98;;
12768;SDS011;6448;48.916;8.990;2022-12-18T05:05:59;21.38;;;19.27;;
12768;SDS011;6448;48.916;8.990;2022-12-18T05:07:00;20.20;;;18.23;;
12768;SDS011;6448;48.916;8.990;2022-12-18T05:08:02;20.63;;;18.73;;
12768;SDS011;6448;48.916;8.990;2022-12-18T05:09:03;20.08;;;18.08;;
12768;SDS011;6448;48.916;8.990;2022-12-18T05:10:05;19.67;;;17.77;;
12768;SDS011;6448;48.916;8.990;2022-12-18T05:11:07;19.35;;;17.55;;
12768;SDS011;6448;48.916;8.990;2022-12-18T05:12:10;20.38;;;18.48;;
12768;SDS011;6448;48.916;8.990;2022-12-18T05:13:11;20.42;;;18.42;;
12768;SDS011;6448;48.916;8.990;2022-12-18T05:14:13;20.30;;;18.40;;
12768;SDS011;6448;48.916;8.990;2022-12-18T05:15:14;19.67;;;17.77;;
12768;SDS011;6448;48.916;8.990;2022-12-18T05:16:15;20.02;;;18.15;;
12768;SDS011;6448;48.916;8.990;2022-12-18T05:17:19;20.52;;;18.52;;
12768;SDS011;6448;48.916;8.990;2022-12-18T05:18:20;20.80;;;18.80;;
12768;SDS011;6448;48.916;8.990;2022-12-18T05:19:22;19.88;;;17.98;;
12768;SDS011;6448;48.916;8.990;2022-12-18T05:20:24;19.85;;;18.05;;
12768;SDS011;6448;48.916;8.990;2022-12-18T05:21:25;20.27;;;18.27;;
12768;SDS011;6448;48.916;8.990;2022-12-18T05:22:27;20.55;;;18.55;;
12768;SDS011;6448;48.916;8.990;2022-12-18T05:23:27;19.37;;;17.47;;
12768;SDS011;6448;48.916;8.990;2022-12-18T05:24:29;20.02;;;18.13;;
12768;SDS011;6448;48.916;8.990;2022-12-18T05:25:30;19.65;;;17.80;;
12768;SDS011;6448;48.916;8.990;2022-12-18T05:26:32;19.55;;;17.65;;
12768;SDS011;6448;48.916;8.990;2022-12-18T05:27:33;20.35;;;18.35;;
12768;SDS011;6448;48.916;8.990;2022-12-18T05:28:35;20.05;;;18.15;;
12768;SDS011;6448;48.916;8.990;2022-12-18T05:29:36;19.48;;;17.58;;
12768;SDS011;6448;48.916;8.990;2022-12-18T05:30:38;20.25;;;18.35;;
12768;SDS011;6448;48.916;8.990;2022-12-18T05:31:47;20.73;;;18.73;;
12768;SDS011;6448;48.916;8.990;2022-12-18T05:32:50;19.37;;;17.50;;
12768;SDS011;6448;48.916;8.990;2022-12-18T05:33:51;19.70;;;17.83;;
12768;SDS011;6448;48.916;8.990;2022-12-18T05:34:52;19.95;;;18.05;;
12768;SDS011;6448;48.916;8.990;2022-12-18T05:35:54;19.25;;;17.48;;
12768;SDS011;6448;48.916;8.990;2022-12-18T05:36:57;19.63;;;17.83;;
12768;SDS011;6448;48.916;8.990;2022-12-18T05:37:57;19.50;;;17.70;;
12768;SDS011;6448;48.916;8.990;2022-12-18T05:38:59;19.40;;;17.60;;
12768;SDS011;6448;48.916;8.990;2022-12-18T05:40:00;19.75;;;17.85;;
12768;SDS011;6448;48.916;8.990;2022-12-18T05:41:02;20.30;;;18.38;;
12768;SDS011;6448;48.916;8.990;2022-12-18T05:42:03;19.67;;;17.77;;
12768;SDS011;6448;48.916;8.990;2022-12-18T05:43:05;19.88;;;17.98;;
12768;SDS011;6448;48.916;8.990;2022-12-18T05:44:06;19.70;;;17.70;;
12768;SDS011;6448;48.916;8.990;2022-12-18T05:45:08;19.60;;;17.70;;
12768;SDS011;6448;48.916;8.990;2022-12-18T05:46:11;20.17;;;18.25;;
12768;SDS011;6448;48.916;8.990;2022-12-18T05:47:13;19.05;;;17.35;;
12768;SDS011;6448;48.916;8.990;2022-12-18T05:48:16;19.67;;;17.77;;
12768;SDS011;6448;48.916;8.990;2022-12-18T05:49:18;19.83;;;17.92;;
12768;SDS011;6448;48.916;8.990;2022-12-18T05:50:19;18.55;;;16.85;;
12768;SDS011;6448;48.916;8.990;2022-12-18T05:51:21;19.13;;;17.27;;
12768;SDS011;6448;48.916;8.990;2022-12-18T05:52:22;19.35;;;17.52;;
12768;SDS011;6448;48.916;8.990;2022-12-18T05:53:24;18.83;;;17.13;;
12768;SDS011;6448;48.916;8.990;2022-12-18T05:54:26;19.90;;;18.00;;
12768;SDS011;6448;48.916;8.990;2022-12-18T05:55:28;18.88;;;17.13;;
12768;SDS011;6448;48.916;8.990;2022-12-18T05:56:29;19.23;;;17.33;;
12768;SDS011;6448;48.916;8.990;2022-12-18T05:57:30;18.88;;;17.17;;
12768;SDS011;6448;48.916;8.990;2022-12-18T05:58:31;18.20;;;16.50;;
12768;SDS011;6448;48.916;8.990;2022-12-18T05:59:34;19.20;;;17.40;;
12768;SDS011;6448;48.916;8.990;2022-12-18T06:00:35;18.83;;;17.02;;
12768;SDS011;6448;48.916;8.990;2022-12-18T06:01:39;18.65;;;16.90;;
12768;SDS011;6448;48.916;8.990;2022-12-18T06:02:40;17.77;;;16.08;;
12768;SDS011;6448;48.916;8.990;2022-12-18T06:03:43;17.55;;;15.95;;
12768;SDS011;6448;48.916;8.990;2022-12-18T06:04:44;18.55;;;16.83;;
12768;SDS011;6448;48.916;8.990;2022-12-18T06:05:47;18.50;;;16.70;;
12768;SDS011;6448;48.916;8.990;2022-12-18T06:06:47;18.20;;;16.50;;
12768;SDS011;6448;48.916;8.990;2022-12-18T06:07:49;18.40;;;16.63;;
12768;SDS011;6448;48.916;8.990;2022-12-18T06:08:50;17.70;;;16.00;;
12768;SDS011;6448;48.916;8.990;2022-12-18T06:09:52;17.50;;;15.90;;
12768;SDS011;6448;48.916;8.990;2022-12-18T06:10:53;17.92;;;16.23;;
12768;SDS011;6448;48.916;8.990;2022-12-18T06:11:55;17.83;;;16.13;;
12768;SDS011;6448;48.916;8.990;2022-12-18T06:12:55;16.90;;;15.43;;
12768;SDS011;6448;48.916;8.990;2022-12-18T06:13:57;18.00;;;16.37;;
12768;SDS011;6448;48.916;8.990;2022-12-18T06:14:58;17.27;;;15.60;;
12768;SDS011;6448;48.916;8.990;2022-12-18T06:16:01;17.65;;;15.95;;
12768;SDS011;6448;48.916;8.990;2022-12-18T06:17:02;17.15;;;15.55;;
12768;SDS011;6448;48.916;8.990;2022-12-18T06:18:04;17.35;;;15.75;;
12768;SDS011;6448;48.916;8.990;2022-12-18T06:19:06;16.92;;;15.32;;
12768;SDS011;6448;48.916;8.990;2022-12-18T06:20:08;17.33;;;15.73;;
12768;SDS011;6448;48.916;8.990;2022-12-18T06:21:09;16.65;;;15.05;;
12768;SDS011;6448;48.916;8.990;2022-12-18T06:22:11;16.15;;;14.65;;
12768;SDS011;6448;48.916;8.990;2022-12-18T06:23:12;16.13;;;14.63;;